Time;durP1;ratioP1;P1;durP2;ratioP2;P2;SDS_P1;SDS_P2;PMS_P1;PMS_P2;Temp;Humidity;BMP_temperature;BMP_pressure;BME280_temperature;BME280_humidity;BME280_pressure;Samples;Min_cycle;Max_cycle;Signal;HPM_P1;HPM_P2
2023/01/04 00:01:52;;;;;;;17.77;12.35;;;;;;;10.27;83.65;95788.44;4974600;28;20414;-79
2023/01/04 00:04:17;;;;;;;15.02;11.18;;;;;;;10.29;83.69;95789.03;4974089;28;20417;-78
2023/01/04 00:06:43;;;;;;;14.67;9.87;;;;;;;10.18;83.32;95764.06;4974977;28;20437;-78
2023/01/04 00:09:08;;;;;;;16.33;10.50;;;;;;;10.16;84.00;95762.56;4972634;28;20448;-78
2023/01/04 00:11:33;;;;;;;14.63;9.60;;;;;;;10.23;83.89;95770.56;4974034;28;20422;-78
2023/01/04 00:13:59;;;;;;;17.20;9.10;;;;;;;10.35;83.43;95790.97;4975195;28;20269;-79
2023/01/04 00:16:27;;;;;;;15.13;8.93;;;;;;;10.31;83.16;95773.91;4974092;28;20429;-79
2023/01/04 00:18:53;;;;;;;11.43;7.40;;;;;;;10.35;82.53;95762.00;4975309;28;20169;-78
2023/01/04 00:21:21;;;;;;;15.27;8.57;;;;;;;10.53;82.42;95799.25;4975323;28;20668;-79
2023/01/04 00:23:50;;;;;;;13.75;9.02;;;;;;;10.43;82.91;95803.19;4973874;28;20434;-79
2023/01/04 00:26:20;;;;;;;15.10;8.20;;;;;;;10.28;82.56;95790.06;4973646;28;21230;-78
2023/01/04 00:28:47;;;;;;;13.97;8.17;;;;;;;10.38;82.24;95805.56;4972706;28;20425;-78
2023/01/04 00:31:14;;;;;;;12.88;8.25;;;;;;;10.22;82.47;95788.16;4973114;28;20424;-78
2023/01/04 00:33:40;;;;;;;11.07;6.72;;;;;;;10.39;82.28;95809.81;4974782;28;20418;-78
2023/01/04 00:36:11;;;;;;;14.10;7.63;;;;;;;10.45;81.90;95809.09;4974979;28;20198;-79
2023/01/04 00:38:37;;;;;;;13.55;7.43;;;;;;;10.33;81.88;95807.94;4966613;28;20928;-78
2023/01/04 00:41:04;;;;;;;12.07;7.13;;;;;;;10.31;81.79;95800.22;4974560;28;20449;-79
2023/01/04 00:43:30;;;;;;;13.30;8.60;;;;;;;10.16;81.98;95768.66;4971924;28;20429;-79
2023/01/04 00:45:56;;;;;;;11.10;7.47;;;;;;;10.07;81.88;95767.13;4973240;28;20421;-79
2023/01/04 00:48:21;;;;;;;13.40;8.40;;;;;;;10.11;81.58;95760.50;4973422;28;21013;-79
2023/01/04 00:50:48;;;;;;;14.35;8.80;;;;;;;10.33;81.53;95802.66;4972068;28;20497;-78
2023/01/04 00:53:15;;;;;;;12.43;8.63;;;;;;;10.24;82.19;95809.03;4972800;28;20464;-78
2023/01/04 00:55:40;;;;;;;13.87;8.10;;;;;;;10.32;81.25;95799.22;4974646;28;20177;-79
2023/01/04 00:58:06;;;;;;;12.40;8.40;;;;;;;10.30;81.44;95806.47;4973556;28;20424;-79
2023/01/04 01:00:32;;;;;;;14.60;8.80;;;;;;;10.28;81.04;95799.78;4974406;28;20786;-79
2023/01/04 01:02:57;;;;;;;11.93;7.60;;;;;;;10.28;81.41;95808.50;4974097;28;20424;-79
2023/01/04 01:05:23;;;;;;;13.13;8.53;;;;;;;10.12;81.46;95792.88;4972537;28;20182;-79
2023/01/04 01:07:48;;;;;;;11.53;8.13;;;;;;;10.18;81.89;95810.59;4971381;28;20456;-79
2023/01/04 01:10:14;;;;;;;13.87;8.20;;;;;;;10.07;81.78;95793.44;4971833;28;20534;-78
2023/01/04 01:12:39;;;;;;;14.10;8.70;;;;;;;10.16;81.67;95812.56;4974111;28;20468;-79
2023/01/04 01:15:05;;;;;;;13.13;7.60;;;;;;;10.14;81.92;95820.63;4973522;28;20637;-79
2023/01/04 01:17:32;;;;;;;12.57;8.93;;;;;;;10.23;81.35;95823.19;4972046;28;20418;-79
2023/01/04 01:19:58;;;;;;;11.57;7.53;;;;;;;10.18;81.65;95829.84;4969372;28;20185;-79
2023/01/04 01:22:23;;;;;;;12.30;8.20;;;;;;;9.98;81.61;95806.88;4971968;28;20937;-79
2023/01/04 01:24:48;;;;;;;11.67;7.70;;;;;;;9.95;81.95;95805.41;4973444;28;20856;-79
2023/01/04 01:27:14;;;;;;;12.80;7.57;;;;;;;10.03;81.87;95830.81;4973796;28;20174;-79
2023/01/04 01:29:39;;;;;;;14.60;9.25;;;;;;;9.76;82.77;95798.94;4972752;28;20429;-79
2023/01/04 01:32:05;;;;;;;17.00;8.00;;;;;;;10.06;82.18;95833.88;4973683;28;20197;-79
2023/01/04 01:34:30;;;;;;;11.97;8.23;;;;;;;9.96;81.99;95814.13;4972843;28;20928;-79
2023/01/04 01:36:55;;;;;;;18.57;7.80;;;;;;;10.15;82.09;95824.09;4973066;28;20181;-79
2023/01/04 01:39:21;;;;;;;11.93;7.67;;;;;;;9.70;81.50;95747.03;4973682;28;20182;-79
2023/01/04 01:41:47;;;;;;;15.07;9.37;;;;;;;10.05;81.96;95807.75;4972252;28;20421;-79
2023/01/04 01:44:12;;;;;;;16.80;9.50;;;;;;;10.13;82.12;95824.25;4971139;28;20424;-79
2023/01/04 01:46:42;;;;;;;13.73;8.30;;;;;;;10.09;81.82;95815.13;4973692;28;20185;-79
2023/01/04 01:49:22;;;;;;;14.90;8.43;;;;;;;10.20;81.87;95824.41;4973709;28;20634;-79
2023/01/04 01:51:48;;;;;;;14.90;8.20;;;;;;;10.21;81.54;95824.19;4969818;28;20267;-79
2023/01/04 01:54:21;;;;;;;15.68;8.30;;;;;;;9.78;81.82;95760.09;4973472;28;20330;-79
2023/01/04 01:56:50;;;;;;;13.97;7.70;;;;;;;10.05;82.06;95799.88;4973434;28;20181;-79
2023/01/04 01:59:17;;;;;;;13.68;9.45;;;;;;;10.06;82.35;95809.41;4971665;28;20778;-79
2023/01/04 02:01:43;;;;;;;17.83;10.07;;;;;;;9.92;82.32;95786.56;4973522;28;20178;-79
2023/01/04 02:04:10;;;;;;;14.03;8.53;;;;;;;10.06;82.04;95806.75;4973763;28;20186;-79
2023/01/04 02:06:40;;;;;;;16.13;9.55;;;;;;;9.98;82.33;95807.69;4970895;28;20786;-79
2023/01/04 02:09:07;;;;;;;16.30;9.27;;;;;;;9.77;82.33;95783.97;4966093;28;20689;-78
2023/01/04 02:11:32;;;;;;;16.20;9.03;;;;;;;9.75;81.95;95772.81;4972836;28;20232;-77
2023/01/04 02:17:08;;;;;;;17.03;9.27;;;;;;;9.81;82.27;95816.78;4966551;28;20224;-77
2023/01/04 02:19:36;;;;;;;16.50;9.43;;;;;;;9.72;82.60;95809.97;4971667;28;20436;-77
2023/01/04 02:22:33;;;;;;;16.30;10.43;;;;;;;9.56;83.42;95807.53;4970872;28;20430;-77
2023/01/04 02:25:04;;;;;;;16.27;10.32;;;;;;;9.50;83.85;95809.06;4970661;28;20433;-78
2023/01/04 02:27:52;;;;;;;18.25;11.13;;;;;;;9.48;83.82;95807.63;4970027;28;20529;-78
2023/01/04 02:30:30;;;;;;;17.73;10.68;;;;;;;9.50;83.37;95797.75;4967622;28;20457;-78
2023/01/04 02:32:55;;;;;;;13.50;8.27;;;;;;;9.54;83.01;95806.88;4972920;28;20251;-78
2023/01/04 02:35:30;;;;;;;16.33;9.77;;;;;;;9.43;83.85;95792.38;4971525;28;20841;-77
2023/01/04 02:38:20;;;;;;;17.30;9.43;;;;;;;9.53;83.75;95806.06;4972572;28;20181;-78
2023/01/04 02:41:11;;;;;;;17.67;10.00;;;;;;;9.48;84.21;95791.84;4971893;28;20429;-78
2023/01/04 02:46:40;;;;;;;14.75;10.10;;;;;;;9.29;84.91;95786.13;4970791;28;20436;-77
2023/01/04 02:51:50;;;;;;;16.20;9.13;;;;;;;9.54;85.20;95801.63;4975190;28;20484;-77
2023/01/04 02:54:21;;;;;;;15.57;9.37;;;;;;;9.65;84.67;95809.88;4973693;28;20425;-77
2023/01/04 02:57:05;;;;;;;14.47;9.37;;;;;;;9.57;84.89;95798.66;4974911;28;20461;-78
2023/01/04 02:59:42;;;;;;;12.50;9.05;;;;;;;9.57;84.98;95801.28;4975123;28;20782;-77
2023/01/04 03:08:23;;;;;;;13.35;8.68;;;;;;;9.55;84.89;95803.25;4976169;28;20432;-79
2023/01/04 03:11:01;;;;;;;16.05;9.75;;;;;;;9.29;85.47;95788.75;4975977;28;20434;-79
2023/01/04 03:13:36;;;;;;;16.77;10.18;;;;;;;9.07;85.93;95761.56;4966740;28;20433;-78
2023/01/04 03:16:10;;;;;;;15.57;10.67;;;;;;;9.24;86.00;95791.09;4973496;28;20434;-78
2023/01/04 03:18:44;;;;;;;16.17;10.10;;;;;;;9.17;85.73;95768.38;4973484;28;20422;-78
2023/01/04 03:21:12;;;;;;;16.30;9.23;;;;;;;9.17;85.87;95779.66;4976041;28;20711;-78
2023/01/04 03:37:49;;;;;;;18.33;11.00;;;;;;;9.24;86.39;95806.88;4975009;28;20432;-78
2023/01/04 03:49:10;;;;;;;17.55;11.65;;;;;;;8.81;87.30;95774.25;4973513;28;20424;-77
2023/01/04 03:51:37;;;;;;;17.23;11.43;;;;;;;8.99;87.52;95800.22;4972350;28;20433;-77
2023/01/04 03:54:08;;;;;;;15.27;10.27;;;;;;;9.19;87.06;95816.25;4975589;28;20197;-79
2023/01/04 03:56:40;;;;;;;17.90;8.53;;;;;;;9.30;86.54;95816.66;4974159;28;20200;-78
2023/01/04 03:59:06;;;;;;;20.08;10.52;;;;;;;9.24;86.66;95812.13;4973791;28;20425;-78
2023/01/04 04:01:32;;;;;;;15.97;9.23;;;;;;;9.13;85.99;95783.66;4975415;28;20181;-78
2023/01/04 04:09:25;;;;;;;15.27;9.80;;;;;;;8.95;86.81;95770.84;4965916;28;21751;-78
2023/01/04 04:11:51;;;;;;;18.17;10.35;;;;;;;9.20;86.73;95800.31;4974314;28;20421;-78
2023/01/04 04:14:16;;;;;;;18.52;11.65;;;;;;;9.31;86.38;95823.53;4973374;28;20977;-78
2023/01/04 04:16:41;;;;;;;18.05;11.43;;;;;;;9.29;86.38;95809.75;4973346;28;20497;-78
2023/01/04 04:19:07;;;;;;;17.80;10.50;;;;;;;9.22;86.13;95816.72;4973284;28;20451;-78
2023/01/04 04:21:32;;;;;;;15.52;10.48;;;;;;;9.22;86.54;95816.72;4971043;28;20428;-78
2023/01/04 04:23:57;;;;;;;19.87;12.33;;;;;;;9.11;86.51;95804.03;4973042;28;20452;-78
2023/01/04 04:26:24;;;;;;;16.80;10.43;;;;;;;9.26;86.49;95825.06;4973368;28;20413;-78
2023/01/04 04:28:50;;;;;;;19.08;11.35;;;;;;;9.09;86.63;95798.13;4973356;28;20487;-77
2023/01/04 04:31:15;;;;;;;15.20;9.52;;;;;;;9.16;85.79;95809.56;4972879;28;20413;-77
2023/01/04 04:33:40;;;;;;;15.87;9.80;;;;;;;9.25;86.29;95832.16;4973280;28;20448;-78
2023/01/04 04:36:07;;;;;;;12.90;8.77;;;;;;;9.21;85.95;95812.47;4969303;28;20186;-78
2023/01/04 04:38:33;;;;;;;21.65;10.95;;;;;;;9.23;86.30;95836.75;4968014;28;20434;-78
2023/01/04 04:43:42;;;;;;;18.20;9.50;;;;;;;9.34;85.34;95819.75;4973599;28;20672;-78
2023/01/04 04:46:08;;;;;;;18.07;10.43;;;;;;;9.36;85.00;95821.19;4970846;28;20182;-78
2023/01/04 04:48:33;;;;;;;15.98;10.40;;;;;;;9.45;84.94;95842.94;4971169;28;20429;-78
2023/01/04 04:50:58;;;;;;;14.80;10.40;;;;;;;9.28;85.44;95823.06;4973527;28;20452;-78
2023/01/04 04:53:24;;;;;;;15.60;8.67;;;;;;;9.49;85.09;95843.41;4974239;28;20209;-78
2023/01/04 04:55:51;;;;;;;14.93;9.73;;;;;;;9.27;85.12;95819.63;4973030;28;20417;-78
2023/01/04 04:58:16;;;;;;;16.00;9.95;;;;;;;9.41;85.05;95837.25;4974080;28;20429;-78
2023/01/04 05:00:42;;;;;;;16.33;9.23;;;;;;;9.44;85.20;95850.00;4973281;28;20178;-78
2023/01/04 05:03:07;;;;;;;15.50;9.93;;;;;;;9.43;85.56;95839.66;4973826;28;20410;-78
2023/01/04 05:05:33;;;;;;;16.13;10.63;;;;;;;9.46;85.50;95852.47;4972534;28;20414;-78
2023/01/04 05:07:58;;;;;;;24.23;14.00;;;;;;;9.40;85.84;95843.50;4973183;28;20929;-78
2023/01/04 05:10:24;;;;;;;45.03;19.53;;;;;;;9.48;85.10;95852.28;4973635;28;20612;-78
2023/01/04 05:12:58;;;;;;;31.58;16.30;;;;;;;9.48;85.28;95854.91;4972729;28;20437;-78
2023/01/04 05:15:31;;;;;;;21.15;12.52;;;;;;;9.30;85.31;95832.41;4972137;28;20516;-78
2023/01/04 05:17:57;;;;;;;22.90;11.70;;;;;;;9.38;85.30;95853.38;4974012;28;20595;-78
2023/01/04 05:20:22;;;;;;;44.00;22.17;;;;;;;9.32;85.70;95846.19;4972314;28;20479;-78
2023/01/04 05:22:48;;;;;;;26.67;15.85;;;;;;;9.31;86.27;95843.75;4972827;28;20924;-78
2023/01/04 05:25:13;;;;;;;18.13;12.13;;;;;;;9.16;86.15;95830.59;4969750;28;20425;-77
2023/01/04 05:27:39;;;;;;;18.20;10.80;;;;;;;9.31;85.40;95852.44;4972890;28;20476;-78
2023/01/04 05:32:49;;;;;;;29.67;16.92;;;;;;;9.13;86.14;95851.94;4973096;28;20443;-78
2023/01/04 05:35:14;;;;;;;24.37;13.30;;;;;;;9.23;86.04;95857.78;4973456;28;20635;-78
2023/01/04 05:37:41;;;;;;;17.13;10.53;;;;;;;9.17;85.80;95841.91;4973045;28;20236;-78
2023/01/04 05:40:07;;;;;;;26.50;11.53;;;;;;;9.30;85.81;95853.44;4971018;28;20228;-78
2023/01/04 05:42:32;;;;;;;21.45;11.90;;;;;;;9.31;85.23;95849.00;4969315;28;20409;-78
2023/01/04 05:44:58;;;;;;;21.97;12.70;;;;;;;9.33;85.40;95868.84;4969248;28;20683;-78
2023/01/04 05:47:24;;;;;;;24.97;13.93;;;;;;;9.18;85.24;95838.25;4976684;28;20870;-78
2023/01/04 05:49:50;;;;;;;33.65;16.63;;;;;;;9.24;85.56;95864.66;4970843;28;20773;-78
2023/01/04 05:52:16;;;;;;;29.58;15.45;;;;;;;9.21;85.71;95859.75;4970592;28;20437;-78
2023/01/04 05:54:42;;;;;;;26.13;14.60;;;;;;;9.22;85.21;95869.28;4971967;28;20913;-78
2023/01/04 05:57:07;;;;;;;29.80;16.30;;;;;;;9.08;85.74;95862.19;4971411;28;20413;-78
2023/01/04 05:59:33;;;;;;;27.23;13.03;;;;;;;9.27;85.16;95869.53;4972012;28;20174;-78
2023/01/04 06:01:58;;;;;;;20.27;11.27;;;;;;;9.22;85.35;95853.50;4971719;28;20653;-79
2023/01/04 06:04:23;;;;;;;20.33;10.70;;;;;;;9.35;85.21;95874.72;4973140;28;20173;-78
2023/01/04 06:06:49;;;;;;;24.40;12.47;;;;;;;9.35;85.06;95876.53;4972146;28;20425;-78
2023/01/04 06:09:14;;;;;;;20.30;11.00;;;;;;;9.41;84.75;95870.59;4973143;28;20428;-78
2023/01/04 06:11:40;;;;;;;21.73;13.10;;;;;;;9.15;85.05;95872.78;4971196;28;20421;-78
2023/01/04 06:14:05;;;;;;;30.63;14.63;;;;;;;9.15;85.43;95870.97;4972998;28;20485;-78
2023/01/04 06:16:31;;;;;;;21.00;13.00;;;;;;;9.14;85.23;95879.03;4971619;28;20421;-78
2023/01/04 06:18:56;;;;;;;24.40;12.93;;;;;;;9.16;85.38;95887.56;4973285;28;20174;-78
2023/01/04 06:21:24;;;;;;;37.80;18.13;;;;;;;9.10;85.16;95865.41;4972742;28;20465;-78
2023/01/04 06:23:50;;;;;;;23.13;12.23;;;;;;;9.31;84.66;95891.88;4972939;28;20218;-78
2023/01/04 06:26:15;;;;;;;21.02;13.02;;;;;;;9.24;84.21;95880.44;4972256;28;20476;-78
2023/01/04 06:28:40;;;;;;;20.70;13.80;;;;;;;9.12;85.30;95896.78;4970930;28;20426;-78
2023/01/04 06:31:07;;;;;;;18.07;9.93;;;;;;;9.06;85.29;95893.03;4972843;28;20220;-78
2023/01/04 06:33:33;;;;;;;21.88;12.93;;;;;;;9.08;85.85;95897.09;4971616;28;20437;-78
2023/01/04 06:35:59;;;;;;;20.03;12.50;;;;;;;9.04;85.51;95887.16;4970418;28;20868;-78
2023/01/04 06:38:25;;;;;;;21.97;13.13;;;;;;;9.09;85.54;95897.94;4970962;28;20444;-78
2023/01/04 06:40:51;;;;;;;21.50;12.10;;;;;;;9.25;85.27;95908.34;4972685;28;20177;-78
2023/01/04 06:43:17;;;;;;;21.10;13.63;;;;;;;9.13;85.51;95880.84;4971679;28;20417;-78
2023/01/04 06:45:42;;;;;;;20.98;12.65;;;;;;;9.18;85.06;95885.56;4972823;28;20779;-77
2023/01/04 06:48:08;;;;;;;20.20;12.50;;;;;;;9.17;84.27;95868.97;4973001;28;20648;-78
2023/01/04 06:50:34;;;;;;;20.20;11.03;;;;;;;9.32;84.50;95876.91;4972372;28;20649;-78
2023/01/04 06:52:59;;;;;;;21.67;12.32;;;;;;;9.23;84.27;95881.41;4971265;28;20493;-78
2023/01/04 06:55:25;;;;;;;23.13;13.00;;;;;;;9.15;84.06;95876.22;4970498;28;20864;-78
2023/01/04 06:57:50;;;;;;;21.93;12.70;;;;;;;9.36;84.37;95905.28;4971782;28;20700;-78
2023/01/04 07:00:16;;;;;;;21.73;13.48;;;;;;;9.19;84.07;95874.88;4971277;28;20789;-78
2023/01/04 07:02:41;;;;;;;20.77;13.00;;;;;;;9.30;83.75;95879.72;4971231;28;20500;-78
2023/01/04 07:05:07;;;;;;;19.47;10.80;;;;;;;9.48;83.54;95896.97;4972349;28;20197;-78
2023/01/04 07:07:34;;;;;;;21.80;11.63;;;;;;;9.49;83.33;95906.50;4972322;28;20178;-78
2023/01/04 07:09:59;;;;;;;19.07;10.33;;;;;;;9.42;83.13;95894.06;4971221;28;20186;-78
2023/01/04 07:12:25;;;;;;;20.53;10.93;;;;;;;9.46;82.74;95916.34;4972561;28;20190;-78
2023/01/04 07:14:50;;;;;;;19.10;11.27;;;;;;;9.56;83.42;95915.28;4972273;28;20182;-78
2023/01/04 07:17:16;;;;;;;20.00;11.27;;;;;;;9.45;83.42;95904.22;4972384;28;20182;-78
2023/01/04 07:19:41;;;;;;;20.87;11.40;;;;;;;9.64;82.91;95915.22;4972403;28;20324;-78
2023/01/04 07:22:06;;;;;;;21.37;10.40;;;;;;;9.76;82.51;95924.31;4972256;28;20592;-77
2023/01/04 07:24:32;;;;;;;17.33;10.33;;;;;;;9.79;82.56;95926.56;4968177;28;20245;-77
2023/01/04 07:27:01;;;;;;;20.53;11.27;;;;;;;9.86;82.49;95926.69;4967922;28;20190;-78
2023/01/04 07:29:26;;;;;;;31.40;15.30;;;;;;;9.93;82.08;95925.78;4972208;28;20190;-77
2023/01/04 07:31:52;;;;;;;29.87;14.67;;;;;;;9.93;82.18;95933.69;4972445;28;20185;-78
2023/01/04 07:34:21;;;;;;;25.50;14.63;;;;;;;9.87;82.22;95923.84;4973176;28;20273;-77
2023/01/04 07:36:47;;;;;;;29.83;15.63;;;;;;;9.86;82.07;95932.75;4975450;28;20185;-77
2023/01/04 07:39:13;;;;;;;23.10;12.47;;;;;;;9.84;82.13;95926.88;4975032;28;20973;-77
2023/01/04 07:41:40;;;;;;;23.63;12.10;;;;;;;9.79;81.86;95916.88;4975291;28;20184;-77
2023/01/04 07:44:07;;;;;;;26.63;13.07;;;;;;;9.96;81.70;95933.31;4975155;28;20976;-77
2023/01/04 07:46:33;;;;;;;37.33;17.33;;;;;;;9.88;81.12;95914.97;4975631;28;20256;-77
2023/01/04 07:48:59;;;;;;;30.67;14.63;;;;;;;9.76;81.57;95921.69;4974186;28;20192;-77
2023/01/04 07:51:24;;;;;;;47.13;17.97;;;;;;;9.88;81.88;95940.47;4975250;28;20186;-76
2023/01/04 07:53:50;;;;;;;33.57;16.33;;;;;;;9.74;82.00;95918.41;4974815;28;20212;-76
2023/01/04 07:56:16;;;;;;;29.03;13.67;;;;;;;9.92;81.86;95941.75;4974850;28;20198;-77
2023/01/04 07:58:41;;;;;;;20.13;11.83;;;;;;;9.72;81.63;95921.22;4957706;28;20186;-76
2023/01/04 08:01:08;;;;;;;21.23;11.87;;;;;;;9.64;81.79;95917.84;4974860;28;20608;-77
2023/01/04 08:03:33;;;;;;;22.33;13.60;;;;;;;9.76;82.21;95940.09;4974802;28;20244;-77
2023/01/04 08:06:07;;;;;;;33.83;15.70;;;;;;;9.74;82.49;95928.94;4974661;28;20186;-77
2023/01/04 08:08:32;;;;;;;19.47;11.00;;;;;;;9.89;82.06;95947.34;4974613;28;20184;-77
2023/01/04 08:11:02;;;;;;;16.93;10.87;;;;;;;9.95;81.84;95941.38;4974284;28;20189;-76
2023/01/04 08:13:27;;;;;;;18.83;10.20;;;;;;;10.01;81.34;95948.56;4974735;28;20273;-77
2023/01/04 08:15:54;;;;;;;20.87;10.70;;;;;;;10.01;80.48;95943.31;4973590;28;20627;-77
2023/01/04 08:18:19;;;;;;;23.87;10.30;;;;;;;9.99;80.52;95954.00;4974779;28;20194;-77
2023/01/04 08:20:45;;;;;;;22.80;11.37;;;;;;;9.95;81.27;95933.47;4974678;28;20177;-77
2023/01/04 08:23:10;;;;;;;16.30;9.70;;;;;;;10.02;81.02;95943.13;4973399;28;20232;-77
2023/01/04 08:25:36;;;;;;;25.13;11.77;;;;;;;10.00;80.91;95931.13;4974477;28;20182;-77
2023/01/04 08:28:01;;;;;;;25.43;12.00;;;;;;;10.08;80.73;95946.84;4973214;28;20626;-77
2023/01/04 08:30:27;;;;;;;18.47;10.40;;;;;;;10.04;80.87;95933.22;4974260;28;20610;-77
2023/01/04 08:32:52;;;;;;;16.20;8.87;;;;;;;10.14;80.77;95949.56;4974121;28;20185;-77
2023/01/04 08:35:18;;;;;;;18.10;9.83;;;;;;;9.94;80.20;95922.16;4974533;28;20182;-78
2023/01/04 08:37:44;;;;;;;18.07;10.70;;;;;;;10.03;80.06;95931.56;4975020;28;20162;-79
2023/01/04 08:40:10;;;;;;;21.63;11.23;;;;;;;10.15;80.08;95938.03;4973472;28;20567;-80
2023/01/04 08:42:35;;;;;;;17.47;10.90;;;;;;;10.13;80.17;95942.66;4974803;28;20184;-80
2023/01/04 08:45:01;;;;;;;19.67;10.70;;;;;;;10.13;80.01;95947.91;4974419;28;20609;-80
2023/01/04 08:47:28;;;;;;;23.47;10.53;;;;;;;10.16;80.05;95949.38;4974018;28;20182;-79
2023/01/04 08:49:53;;;;;;;33.63;15.57;;;;;;;10.17;79.74;95949.22;4973104;28;20209;-79
2023/01/04 08:52:19;;;;;;;20.23;10.63;;;;;;;10.08;79.70;95938.94;4974289;28;20237;-77
2023/01/04 08:54:44;;;;;;;17.00;10.17;;;;;;;10.22;79.50;95953.94;4968045;28;20626;-77
2023/01/04 08:57:10;;;;;;;18.47;9.13;;;;;;;10.15;79.50;95953.81;4972746;28;20170;-77
2023/01/04 08:59:35;;;;;;;14.73;8.13;;;;;;;10.01;79.58;95933.59;4974058;28;20189;-77
2023/01/04 09:02:01;;;;;;;13.40;8.03;;;;;;;10.07;79.58;95951.28;4973670;28;20646;-77
2023/01/04 09:04:26;;;;;;;13.70;8.10;;;;;;;9.97;79.77;95955.97;4973739;28;20229;-78
2023/01/04 09:06:51;;;;;;;21.27;10.30;;;;;;;9.98;80.38;95949.72;4972661;28;20676;-75
2023/01/04 09:09:17;;;;;;;21.03;10.60;;;;;;;9.91;80.78;95934.84;4973281;28;20182;-76
2023/01/04 09:11:42;;;;;;;16.97;9.37;;;;;;;9.98;80.02;95951.53;4971576;28;20174;-77
2023/01/04 09:14:09;;;;;;;14.13;8.80;;;;;;;9.99;79.70;95948.72;4954309;28;20216;-76
2023/01/04 09:16:36;;;;;;;16.67;10.20;;;;;;;9.81;80.19;95945.63;4959850;28;20178;-76
2023/01/04 09:19:02;;;;;;;13.93;8.50;;;;;;;9.54;80.88;95928.59;4973929;28;20181;-77
2023/01/04 09:21:28;;;;;;;16.53;10.13;;;;;;;9.75;80.99;95947.16;4973969;28;20213;-77
2023/01/04 09:23:55;;;;;;;16.13;9.23;;;;;;;9.72;80.76;95938.81;4973423;28;20245;-77
2023/01/04 09:26:22;;;;;;;14.67;9.27;;;;;;;9.80;80.05;95944.00;4973608;28;20281;-77
2023/01/04 09:28:52;;;;;;;13.50;8.63;;;;;;;9.89;79.82;95940.28;4973502;28;20324;-77
2023/01/04 09:31:20;;;;;;;15.33;8.00;;;;;;;9.91;79.53;95938.28;4972267;28;20173;-77
2023/01/04 09:33:46;;;;;;;14.23;8.63;;;;;;;9.98;78.46;95941.84;4973251;28;20669;-77
2023/01/04 09:36:14;;;;;;;12.87;8.00;;;;;;;10.04;77.87;95932.41;4973860;28;20193;-78
2023/01/04 09:38:39;;;;;;;15.77;8.87;;;;;;;10.04;77.93;95933.22;4968624;28;20252;-78
2023/01/04 09:41:45;;;;;;;13.57;8.67;;;;;;;9.86;77.79;95895.13;4970618;28;20182;-78
2023/01/04 09:44:23;;;;;;;16.03;9.37;;;;;;;10.19;77.79;95930.63;4932055;29;20190;-79
2023/01/04 09:46:54;;;;;;;15.60;8.80;;;;;;;9.90;77.73;95897.22;4932440;29;20249;-78
2023/01/04 09:49:24;;;;;;;19.87;10.40;;;;;;;10.00;77.83;95910.91;4955277;28;20202;-78
2023/01/04 09:52:08;;;;;;;16.07;9.40;;;;;;;10.13;77.75;95910.25;4972931;28;20198;-78
2023/01/04 09:54:59;;;;;;;17.90;9.73;;;;;;;10.25;77.76;95927.28;4972722;28;20186;-78
2023/01/04 09:57:36;;;;;;;17.27;10.30;;;;;;;10.10;77.12;95895.69;4972330;28;20240;-77
2023/01/04 10:00:04;;;;;;;24.97;13.47;;;;;;;10.31;76.88;95920.44;4972487;28;20201;-77
2023/01/04 10:03:06;;;;;;;22.30;11.77;;;;;;;10.28;77.40;95921.66;4971486;28;20182;-77
2023/01/04 10:05:33;;;;;;;15.20;9.17;;;;;;;10.06;76.95;95875.97;4959292;28;20669;-77
2023/01/04 10:08:00;;;;;;;17.20;9.00;;;;;;;10.32;76.37;95922.91;4970327;28;20185;-77
2023/01/04 10:10:44;;;;;;;14.77;8.70;;;;;;;10.34;76.89;95928.81;4972166;28;20188;-77
2023/01/04 10:13:09;;;;;;;21.50;9.23;;;;;;;10.32;76.80;95936.06;4972124;28;20209;-78
2023/01/04 10:15:43;;;;;;;18.80;8.10;;;;;;;10.25;76.80;95919.38;4972403;28;20660;-77
2023/01/04 10:18:53;;;;;;;15.77;8.77;;;;;;;10.22;77.17;95917.09;4972484;28;20180;-76
2023/01/04 10:21:41;;;;;;;14.83;9.00;;;;;;;10.25;77.20;95923.81;4961433;28;20223;-79
2023/01/04 10:24:06;;;;;;;20.97;9.83;;;;;;;10.23;78.02;95920.56;4964294;28;20225;-79
2023/01/04 10:26:45;;;;;;;20.80;11.63;;;;;;;10.10;77.95;95927.25;4970629;28;20622;-78
2023/01/04 10:29:26;;;;;;;18.50;10.40;;;;;;;10.07;78.49;95927.59;4970635;28;20194;-79
2023/01/04 10:32:13;;;;;;;15.93;9.17;;;;;;;9.99;78.76;95904.00;4970372;28;20177;-79
2023/01/04 10:34:41;;;;;;;15.47;9.07;;;;;;;10.07;78.57;95914.44;4963056;28;20224;-80
2023/01/04 10:37:16;;;;;;;15.10;8.00;;;;;;;10.16;78.39;95920.44;4972210;28;20173;-78
2023/01/04 10:39:43;;;;;;;21.93;11.80;;;;;;;10.12;78.31;95925.22;4971891;28;20201;-77
2023/01/04 10:42:23;;;;;;;27.73;15.40;;;;;;;10.08;78.51;95921.34;4962490;28;20197;-76
2023/01/04 10:45:35;;;;;;;21.97;12.37;;;;;;;10.06;79.00;95918.06;4971520;28;20189;-75
2023/01/04 10:48:28;;;;;;;17.70;10.07;;;;;;;9.99;79.05;95922.44;4950348;29;20619;-76
2023/01/04 10:50:56;;;;;;;15.33;9.60;;;;;;;10.00;79.02;95929.31;4950749;29;20987;-75
2023/01/04 10:53:36;;;;;;;15.83;10.33;;;;;;;9.89;79.62;95905.28;4966122;28;20747;-76
2023/01/04 10:56:26;;;;;;;17.17;9.43;;;;;;;10.06;79.08;95915.44;4970045;28;20189;-77
2023/01/04 10:59:09;;;;;;;19.47;10.20;;;;;;;10.12;78.89;95912.06;4970732;28;20213;-76
2023/01/04 11:01:55;;;;;;;18.50;10.43;;;;;;;10.16;79.04;95917.81;4971572;28;20265;-76
2023/01/04 11:04:40;;;;;;;15.97;8.77;;;;;;;10.19;78.87;95907.78;4965046;28;20193;-76
2023/01/04 11:07:19;;;;;;;16.03;9.13;;;;;;;10.21;78.61;95903.13;4972021;28;20201;-77
2023/01/04 11:10:07;;;;;;;16.07;9.13;;;;;;;10.27;78.55;95906.03;4973520;28;20228;-75
2023/01/04 11:12:33;;;;;;;18.43;9.13;;;;;;;10.31;78.15;95907.28;4974579;28;20201;-76
2023/01/04 11:14:58;;;;;;;18.77;10.67;;;;;;;10.37;78.48;95911.84;4974763;28;20802;-76
2023/01/04 11:17:24;;;;;;;13.33;7.47;;;;;;;10.33;77.55;95898.22;4974451;28;20181;-76
2023/01/04 11:19:50;;;;;;;15.10;8.33;;;;;;;10.24;78.52;95882.72;4974244;28;20174;-75
2023/01/04 11:22:45;;;;;;;13.77;8.37;;;;;;;10.21;78.29;95878.63;4973955;28;20680;-76
2023/01/04 11:25:14;;;;;;;16.33;7.97;;;;;;;10.44;77.84;95887.25;4974118;28;20267;-76
2023/01/04 11:28:01;;;;;;;14.47;7.57;;;;;;;10.44;77.62;95884.59;4973976;28;20178;-76
2023/01/04 11:30:52;;;;;;;17.97;9.70;;;;;;;10.52;78.06;95883.69;4973284;28;20174;-76
2023/01/04 11:33:20;;;;;;;16.87;9.53;;;;;;;10.55;77.15;95881.47;4973942;28;20202;-76
2023/01/04 11:35:49;;;;;;;13.87;8.50;;;;;;;10.35;77.14;95879.63;4973951;28;20358;-76
2023/01/04 11:38:20;;;;;;;19.47;9.20;;;;;;;10.34;77.70;95872.72;4974262;28;20304;-76
2023/01/04 11:40:55;;;;;;;18.37;9.63;;;;;;;10.35;77.80;95871.72;4973704;28;20174;-76
2023/01/04 11:43:21;;;;;;;26.93;12.43;;;;;;;10.34;77.80;95872.72;4973896;28;20176;-76
2023/01/04 11:46:00;;;;;;;18.57;10.40;;;;;;;10.36;77.90;95862.84;4973888;28;20261;-76
2023/01/04 11:48:40;;;;;;;26.10;12.57;;;;;;;10.22;77.27;95843.41;4973788;28;20183;-76
2023/01/04 11:51:17;;;;;;;26.67;12.20;;;;;;;10.32;77.41;95843.94;4973576;28;20178;-76
2023/01/04 11:53:43;;;;;;;20.90;10.60;;;;;;;10.45;77.21;95859.91;4973588;28;20189;-76
2023/01/04 11:56:11;;;;;;;27.83;11.33;;;;;;;10.49;77.05;95857.72;4973735;28;20212;-76
2023/01/04 11:58:36;;;;;;;16.83;8.97;;;;;;;10.47;76.77;95863.16;4973356;28;20188;-76
2023/01/04 12:01:02;;;;;;;19.73;10.73;;;;;;;10.45;76.83;95862.56;4973298;28;20178;-75
2023/01/04 12:03:33;;;;;;;20.03;10.73;;;;;;;10.45;77.23;95856.47;4973637;28;20182;-76
2023/01/04 12:05:59;;;;;;;21.03;11.03;;;;;;;10.40;77.74;95848.28;4973378;28;20634;-76
2023/01/04 12:08:34;;;;;;;21.93;13.00;;;;;;;10.41;77.77;95853.38;4973205;28;20229;-77
2023/01/04 12:11:01;;;;;;;26.37;15.70;;;;;;;10.49;77.72;95852.44;4973285;28;20189;-77
2023/01/04 12:13:28;;;;;;;26.23;14.57;;;;;;;10.54;77.28;95858.00;4973378;28;20196;-77
2023/01/04 12:15:57;;;;;;;24.07;12.37;;;;;;;10.73;77.03;95857.38;4974388;28;20269;-77
2023/01/04 12:18:27;;;;;;;21.23;11.93;;;;;;;10.76;77.04;95841.19;4974495;28;20166;-77
2023/01/04 12:20:54;;;;;;;24.30;12.30;;;;;;;10.98;76.65;95843.84;4974532;28;20182;-77
2023/01/04 12:23:20;;;;;;;16.97;10.20;;;;;;;11.13;75.34;95848.03;4974509;28;20229;-77